sensor_id;sensor_type;location;lat;lon;timestamp;P1;durP1;ratioP1;P2;durP2;ratioP2
20110;SDS011;10216;42.658;23.248;2023-05-07T00:01:30;0.70;;;0.70;;
20110;SDS011;10216;42.658;23.248;2023-05-07T00:03:58;0.90;;;0.90;;
20110;SDS011;10216;42.658;23.248;2023-05-07T00:06:24;1.00;;;0.67;;
20110;SDS011;10216;42.658;23.248;2023-05-07T00:08:50;0.60;;;0.60;;
20110;SDS011;10216;42.658;23.248;2023-05-07T00:11:16;0.77;;;0.77;;
20110;SDS011;10216;42.658;23.248;2023-05-07T00:13:41;0.53;;;0.53;;
20110;SDS011;10216;42.658;23.248;2023-05-07T00:16:06;0.80;;;0.73;;
20110;SDS011;10216;42.658;23.248;2023-05-07T00:18:31;1.20;;;1.10;;
20110;SDS011;10216;42.658;23.248;2023-05-07T00:20:57;1.00;;;0.97;;
20110;SDS011;10216;42.658;23.248;2023-05-07T00:23:22;1.90;;;0.73;;
20110;SDS011;10216;42.658;23.248;2023-05-07T00:25:47;0.43;;;0.43;;
20110;SDS011;10216;42.658;23.248;2023-05-07T00:28:12;1.53;;;0.70;;
20110;SDS011;10216;42.658;23.248;2023-05-07T00:30:38;0.70;;;0.70;;
20110;SDS011;10216;42.658;23.248;2023-05-07T00:33:03;0.73;;;0.73;;
20110;SDS011;10216;42.658;23.248;2023-05-07T00:35:28;0.43;;;0.43;;
20110;SDS011;10216;42.658;23.248;2023-05-07T00:37:54;0.47;;;0.47;;
20110;SDS011;10216;42.658;23.248;2023-05-07T00:40:20;0.63;;;0.60;;
20110;SDS011;10216;42.658;23.248;2023-05-07T00:42:45;0.90;;;0.90;;
20110;SDS011;10216;42.658;23.248;2023-05-07T00:45:12;0.77;;;0.77;;
20110;SDS011;10216;42.658;23.248;2023-05-07T00:47:37;0.50;;;0.50;;
20110;SDS011;10216;42.658;23.248;2023-05-07T00:50:02;0.50;;;0.50;;
20110;SDS011;10216;42.658;23.248;2023-05-07T00:52:28;0.30;;;0.30;;
20110;SDS011;10216;42.658;23.248;2023-05-07T00:54:54;0.40;;;0.40;;
20110;SDS011;10216;42.658;23.248;2023-05-07T00:57:19;0.90;;;0.90;;
20110;SDS011;10216;42.658;23.248;2023-05-07T00:59:46;0.50;;;0.50;;
20110;SDS011;10216;42.658;23.248;2023-05-07T01:02:11;0.67;;;0.67;;
20110;SDS011;10216;42.658;23.248;2023-05-07T01:04:36;0.50;;;0.50;;
20110;SDS011;10216;42.658;23.248;2023-05-07T01:07:02;0.40;;;0.40;;
20110;SDS011;10216;42.658;23.248;2023-05-07T01:09:27;0.50;;;0.50;;
20110;SDS011;10216;42.658;23.248;2023-05-07T01:11:52;0.50;;;0.50;;
20110;SDS011;10216;42.658;23.248;2023-05-07T01:14:18;0.50;;;0.50;;
20110;SDS011;10216;42.658;23.248;2023-05-07T01:16:44;0.70;;;0.70;;
20110;SDS011;10216;42.658;23.248;2023-05-07T01:19:09;0.40;;;0.40;;
20110;SDS011;10216;42.658;23.248;2023-05-07T01:21:36;0.87;;;0.87;;
20110;SDS011;10216;42.658;23.248;2023-05-07T01:24:02;2.00;;;0.90;;
20110;SDS011;10216;42.658;23.248;2023-05-07T01:26:27;0.40;;;0.40;;
20110;SDS011;10216;42.658;23.248;2023-05-07T01:28:52;0.47;;;0.47;;
20110;SDS011;10216;42.658;23.248;2023-05-07T01:31:18;0.93;;;0.93;;
20110;SDS011;10216;42.658;23.248;2023-05-07T01:33:43;0.70;;;0.70;;
20110;SDS011;10216;42.658;23.248;2023-05-07T01:36:09;0.50;;;0.50;;
20110;SDS011;10216;42.658;23.248;2023-05-07T01:38:36;1.70;;;0.73;;
20110;SDS011;10216;42.658;23.248;2023-05-07T01:41:02;0.63;;;0.63;;
20110;SDS011;10216;42.658;23.248;2023-05-07T01:43:28;0.67;;;0.67;;
20110;SDS011;10216;42.658;23.248;2023-05-07T01:45:53;2.47;;;1.67;;
20110;SDS011;10216;42.658;23.248;2023-05-07T01:48:19;0.60;;;0.60;;
20110;SDS011;10216;42.658;23.248;2023-05-07T01:50:44;1.40;;;1.03;;
20110;SDS011;10216;42.658;23.248;2023-05-07T01:53:10;0.77;;;0.77;;
20110;SDS011;10216;42.658;23.248;2023-05-07T01:55:35;0.60;;;0.60;;
20110;SDS011;10216;42.658;23.248;2023-05-07T01:58:02;1.20;;;0.87;;
20110;SDS011;10216;42.658;23.248;2023-05-07T02:00:27;0.50;;;0.50;;
20110;SDS011;10216;42.658;23.248;2023-05-07T02:02:52;0.63;;;0.60;;
20110;SDS011;10216;42.658;23.248;2023-05-07T02:05:18;1.20;;;1.20;;
20110;SDS011;10216;42.658;23.248;2023-05-07T02:07:43;2.33;;;0.50;;
20110;SDS011;10216;42.658;23.248;2023-05-07T02:10:08;0.97;;;0.80;;
20110;SDS011;10216;42.658;23.248;2023-05-07T02:12:33;0.70;;;0.70;;
20110;SDS011;10216;42.658;23.248;2023-05-07T02:14:59;0.63;;;0.63;;
20110;SDS011;10216;42.658;23.248;2023-05-07T02:17:24;2.93;;;0.50;;
20110;SDS011;10216;42.658;23.248;2023-05-07T02:19:50;2.10;;;0.70;;
20110;SDS011;10216;42.658;23.248;2023-05-07T02:22:15;0.47;;;0.47;;
20110;SDS011;10216;42.658;23.248;2023-05-07T02:24:40;0.43;;;0.43;;
20110;SDS011;10216;42.658;23.248;2023-05-07T02:27:06;0.63;;;0.60;;
20110;SDS011;10216;42.658;23.248;2023-05-07T02:29:31;0.70;;;0.70;;
20110;SDS011;10216;42.658;23.248;2023-05-07T02:31:56;0.73;;;0.73;;
20110;SDS011;10216;42.658;23.248;2023-05-07T02:34:22;0.43;;;0.43;;
20110;SDS011;10216;42.658;23.248;2023-05-07T02:36:47;0.43;;;0.43;;
20110;SDS011;10216;42.658;23.248;2023-05-07T02:39:12;0.60;;;0.60;;
20110;SDS011;10216;42.658;23.248;2023-05-07T02:41:38;0.67;;;0.67;;
20110;SDS011;10216;42.658;23.248;2023-05-07T02:44:03;0.70;;;0.70;;
20110;SDS011;10216;42.658;23.248;2023-05-07T02:46:28;0.50;;;0.50;;
20110;SDS011;10216;42.658;23.248;2023-05-07T02:48:54;0.97;;;0.73;;
20110;SDS011;10216;42.658;23.248;2023-05-07T02:51:20;0.70;;;0.70;;
20110;SDS011;10216;42.658;23.248;2023-05-07T02:53:45;0.53;;;0.53;;
20110;SDS011;10216;42.658;23.248;2023-05-07T02:56:11;0.70;;;0.70;;
20110;SDS011;10216;42.658;23.248;2023-05-07T02:58:36;0.80;;;0.80;;
20110;SDS011;10216;42.658;23.248;2023-05-07T03:01:01;0.83;;;0.83;;
20110;SDS011;10216;42.658;23.248;2023-05-07T03:03:26;0.80;;;0.60;;
20110;SDS011;10216;42.658;23.248;2023-05-07T03:05:52;1.00;;;0.90;;
20110;SDS011;10216;42.658;23.248;2023-05-07T03:08:17;2.77;;;0.97;;
20110;SDS011;10216;42.658;23.248;2023-05-07T03:10:42;0.70;;;0.70;;
20110;SDS011;10216;42.658;23.248;2023-05-07T03:13:07;0.67;;;0.67;;
20110;SDS011;10216;42.658;23.248;2023-05-07T03:15:33;1.33;;;0.87;;
20110;SDS011;10216;42.658;23.248;2023-05-07T03:17:58;0.60;;;0.60;;
20110;SDS011;10216;42.658;23.248;2023-05-07T03:20:23;1.20;;;1.10;;
20110;SDS011;10216;42.658;23.248;2023-05-07T03:22:48;1.07;;;0.70;;
20110;SDS011;10216;42.658;23.248;2023-05-07T03:25:14;0.67;;;0.67;;
20110;SDS011;10216;42.658;23.248;2023-05-07T03:27:39;1.43;;;1.33;;
20110;SDS011;10216;42.658;23.248;2023-05-07T03:30:06;0.87;;;0.87;;
20110;SDS011;10216;42.658;23.248;2023-05-07T03:32:32;1.70;;;0.97;;
20110;SDS011;10216;42.658;23.248;2023-05-07T03:34:57;0.67;;;0.67;;
20110;SDS011;10216;42.658;23.248;2023-05-07T03:37:23;2.87;;;1.37;;
20110;SDS011;10216;42.658;23.248;2023-05-07T03:39:48;0.70;;;0.70;;
20110;SDS011;10216;42.658;23.248;2023-05-07T03:42:14;0.83;;;0.80;;
20110;SDS011;10216;42.658;23.248;2023-05-07T03:44:40;0.73;;;0.73;;
20110;SDS011;10216;42.658;23.248;2023-05-07T03:47:05;0.70;;;0.70;;
20110;SDS011;10216;42.658;23.248;2023-05-07T03:49:30;1.23;;;1.13;;
20110;SDS011;10216;42.658;23.248;2023-05-07T03:51:55;1.20;;;1.13;;
20110;SDS011;10216;42.658;23.248;2023-05-07T03:54:21;0.90;;;0.90;;
20110;SDS011;10216;42.658;23.248;2023-05-07T03:56:46;0.83;;;0.70;;
20110;SDS011;10216;42.658;23.248;2023-05-07T03:59:12;1.43;;;0.83;;
20110;SDS011;10216;42.658;23.248;2023-05-07T04:01:38;0.60;;;0.60;;
20110;SDS011;10216;42.658;23.248;2023-05-07T04:04:03;0.47;;;0.47;;
20110;SDS011;10216;42.658;23.248;2023-05-07T04:06:29;0.73;;;0.73;;
20110;SDS011;10216;42.658;23.248;2023-05-07T04:08:54;0.57;;;0.57;;
20110;SDS011;10216;42.658;23.248;2023-05-07T04:11:19;0.50;;;0.50;;
20110;SDS011;10216;42.658;23.248;2023-05-07T04:13:45;0.93;;;0.93;;
20110;SDS011;10216;42.658;23.248;2023-05-07T04:16:10;0.93;;;0.93;;
20110;SDS011;10216;42.658;23.248;2023-05-07T04:18:35;0.97;;;0.90;;
20110;SDS011;10216;42.658;23.248;2023-05-07T04:21:01;1.93;;;1.10;;
20110;SDS011;10216;42.658;23.248;2023-05-07T04:23:26;0.87;;;0.80;;
20110;SDS011;10216;42.658;23.248;2023-05-07T04:25:51;0.70;;;0.70;;
20110;SDS011;10216;42.658;23.248;2023-05-07T04:28:16;0.77;;;0.77;;
20110;SDS011;10216;42.658;23.248;2023-05-07T04:30:42;0.80;;;0.80;;
20110;SDS011;10216;42.658;23.248;2023-05-07T04:33:07;2.33;;;0.87;;
20110;SDS011;10216;42.658;23.248;2023-05-07T04:35:33;1.17;;;1.13;;
20110;SDS011;10216;42.658;23.248;2023-05-07T04:37:58;0.70;;;0.70;;
20110;SDS011;10216;42.658;23.248;2023-05-07T04:40:23;1.93;;;1.10;;
20110;SDS011;10216;42.658;23.248;2023-05-07T04:42:49;1.43;;;1.30;;
20110;SDS011;10216;42.658;23.248;2023-05-07T04:45:14;1.50;;;1.40;;
20110;SDS011;10216;42.658;23.248;2023-05-07T04:47:40;1.93;;;1.80;;
20110;SDS011;10216;42.658;23.248;2023-05-07T04:50:06;2.07;;;1.70;;
20110;SDS011;10216;42.658;23.248;2023-05-07T04:52:31;1.90;;;1.57;;
20110;SDS011;10216;42.658;23.248;2023-05-07T04:54:58;1.47;;;1.37;;
20110;SDS011;10216;42.658;23.248;2023-05-07T04:57:25;1.33;;;0.77;;
20110;SDS011;10216;42.658;23.248;2023-05-07T04:59:51;1.57;;;1.47;;
20110;SDS011;10216;42.658;23.248;2023-05-07T05:02:16;1.83;;;1.60;;
20110;SDS011;10216;42.658;23.248;2023-05-07T05:04:41;1.80;;;1.10;;
20110;SDS011;10216;42.658;23.248;2023-05-07T05:07:07;1.93;;;1.57;;
20110;SDS011;10216;42.658;23.248;2023-05-07T05:09:32;1.20;;;1.03;;
20110;SDS011;10216;42.658;23.248;2023-05-07T05:11:57;1.33;;;1.23;;
20110;SDS011;10216;42.658;23.248;2023-05-07T05:14:22;1.60;;;1.30;;
20110;SDS011;10216;42.658;23.248;2023-05-07T05:16:48;2.80;;;1.00;;
20110;SDS011;10216;42.658;23.248;2023-05-07T05:19:13;1.83;;;1.73;;
20110;SDS011;10216;42.658;23.248;2023-05-07T05:21:38;1.63;;;1.50;;
20110;SDS011;10216;42.658;23.248;2023-05-07T05:24:03;1.43;;;1.33;;
20110;SDS011;10216;42.658;23.248;2023-05-07T05:26:29;1.50;;;1.40;;
20110;SDS011;10216;42.658;23.248;2023-05-07T05:28:54;1.40;;;1.30;;
20110;SDS011;10216;42.658;23.248;2023-05-07T05:31:19;1.97;;;1.67;;
20110;SDS011;10216;42.658;23.248;2023-05-07T05:33:44;1.67;;;1.57;;
20110;SDS011;10216;42.658;23.248;2023-05-07T05:36:10;2.37;;;1.63;;
20110;SDS011;10216;42.658;23.248;2023-05-07T05:38:35;3.53;;;1.60;;
20110;SDS011;10216;42.658;23.248;2023-05-07T05:41:01;1.50;;;1.40;;
20110;SDS011;10216;42.658;23.248;2023-05-07T05:43:26;2.93;;;2.43;;
20110;SDS011;10216;42.658;23.248;2023-05-07T05:45:51;2.73;;;1.27;;
20110;SDS011;10216;42.658;23.248;2023-05-07T05:48:16;1.67;;;1.57;;
20110;SDS011;10216;42.658;23.248;2023-05-07T05:50:42;3.03;;;1.47;;
20110;SDS011;10216;42.658;23.248;2023-05-07T05:53:07;2.00;;;1.47;;
20110;SDS011;10216;42.658;23.248;2023-05-07T05:55:32;1.90;;;1.20;;
20110;SDS011;10216;42.658;23.248;2023-05-07T05:57:59;1.57;;;1.47;;
20110;SDS011;10216;42.658;23.248;2023-05-07T06:00:24;2.13;;;1.60;;
20110;SDS011;10216;42.658;23.248;2023-05-07T06:02:49;1.47;;;1.30;;
20110;SDS011;10216;42.658;23.248;2023-05-07T06:05:14;1.63;;;1.53;;
20110;SDS011;10216;42.658;23.248;2023-05-07T06:07:40;1.60;;;1.50;;
20110;SDS011;10216;42.658;23.248;2023-05-07T06:10:05;1.43;;;1.33;;
20110;SDS011;10216;42.658;23.248;2023-05-07T06:12:31;1.33;;;1.23;;
20110;SDS011;10216;42.658;23.248;2023-05-07T06:14:56;1.90;;;1.80;;
20110;SDS011;10216;42.658;23.248;2023-05-07T06:17:21;0.90;;;0.90;;
20110;SDS011;10216;42.658;23.248;2023-05-07T06:19:46;4.20;;;2.40;;
20110;SDS011;10216;42.658;23.248;2023-05-07T06:22:12;1.63;;;1.43;;
20110;SDS011;10216;42.658;23.248;2023-05-07T06:24:37;1.20;;;1.10;;
20110;SDS011;10216;42.658;23.248;2023-05-07T06:27:02;1.77;;;1.17;;
20110;SDS011;10216;42.658;23.248;2023-05-07T06:29:28;1.20;;;1.03;;
20110;SDS011;10216;42.658;23.248;2023-05-07T06:31:56;1.40;;;1.30;;
20110;SDS011;10216;42.658;23.248;2023-05-07T06:34:21;1.50;;;1.40;;
20110;SDS011;10216;42.658;23.248;2023-05-07T06:36:46;2.00;;;1.70;;
20110;SDS011;10216;42.658;23.248;2023-05-07T06:39:12;1.53;;;1.43;;
20110;SDS011;10216;42.658;23.248;2023-05-07T06:41:37;1.30;;;1.20;;
20110;SDS011;10216;42.658;23.248;2023-05-07T06:44:02;1.40;;;1.30;;
20110;SDS011;10216;42.658;23.248;2023-05-07T06:46:28;4.17;;;1.90;;
20110;SDS011;10216;42.658;23.248;2023-05-07T06:48:53;1.20;;;1.10;;
20110;SDS011;10216;42.658;23.248;2023-05-07T06:51:19;1.50;;;1.03;;
20110;SDS011;10216;42.658;23.248;2023-05-07T06:53:44;1.83;;;1.63;;
20110;SDS011;10216;42.658;23.248;2023-05-07T06:56:09;1.67;;;1.20;;
20110;SDS011;10216;42.658;23.248;2023-05-07T06:58:35;1.83;;;1.70;;
20110;SDS011;10216;42.658;23.248;2023-05-07T07:01:00;5.13;;;1.60;;
20110;SDS011;10216;42.658;23.248;2023-05-07T07:03:25;1.83;;;1.30;;
20110;SDS011;10216;42.658;23.248;2023-05-07T07:05:51;1.83;;;1.70;;
20110;SDS011;10216;42.658;23.248;2023-05-07T07:08:16;1.60;;;1.50;;
20110;SDS011;10216;42.658;23.248;2023-05-07T07:10:42;1.53;;;1.43;;
20110;SDS011;10216;42.658;23.248;2023-05-07T07:13:08;1.53;;;1.10;;
20110;SDS011;10216;42.658;23.248;2023-05-07T07:15:33;1.20;;;1.20;;
20110;SDS011;10216;42.658;23.248;2023-05-07T07:17:58;1.43;;;1.33;;
20110;SDS011;10216;42.658;23.248;2023-05-07T07:20:23;1.37;;;1.27;;
20110;SDS011;10216;42.658;23.248;2023-05-07T07:22:49;1.40;;;1.30;;
20110;SDS011;10216;42.658;23.248;2023-05-07T07:25:14;3.20;;;1.30;;
20110;SDS011;10216;42.658;23.248;2023-05-07T07:27:39;1.50;;;1.30;;
20110;SDS011;10216;42.658;23.248;2023-05-07T07:30:05;1.50;;;1.40;;
20110;SDS011;10216;42.658;23.248;2023-05-07T07:32:30;1.17;;;1.13;;
20110;SDS011;10216;42.658;23.248;2023-05-07T07:34:57;2.20;;;1.33;;
20110;SDS011;10216;42.658;23.248;2023-05-07T07:37:22;1.20;;;1.10;;
20110;SDS011;10216;42.658;23.248;2023-05-07T07:39:50;0.93;;;0.90;;
20110;SDS011;10216;42.658;23.248;2023-05-07T07:42:15;0.90;;;0.90;;
20110;SDS011;10216;42.658;23.248;2023-05-07T07:44:40;1.13;;;1.03;;
20110;SDS011;10216;42.658;23.248;2023-05-07T07:47:06;1.97;;;1.37;;
20110;SDS011;10216;42.658;23.248;2023-05-07T07:49:31;1.30;;;1.20;;
20110;SDS011;10216;42.658;23.248;2023-05-07T07:51:56;1.30;;;1.20;;
20110;SDS011;10216;42.658;23.248;2023-05-07T07:54:24;1.20;;;1.10;;
20110;SDS011;10216;42.658;23.248;2023-05-07T07:56:49;1.30;;;1.20;;
20110;SDS011;10216;42.658;23.248;2023-05-07T07:59:15;1.77;;;1.67;;
20110;SDS011;10216;42.658;23.248;2023-05-07T08:01:43;1.00;;;1.00;;
20110;SDS011;10216;42.658;23.248;2023-05-07T08:04:08;0.93;;;0.93;;
20110;SDS011;10216;42.658;23.248;2023-05-07T08:06:34;0.77;;;0.77;;
20110;SDS011;10216;42.658;23.248;2023-05-07T08:08:59;1.47;;;1.37;;
20110;SDS011;10216;42.658;23.248;2023-05-07T08:11:25;1.17;;;1.07;;
20110;SDS011;10216;42.658;23.248;2023-05-07T08:13:50;1.47;;;1.20;;
20110;SDS011;10216;42.658;23.248;2023-05-07T08:16:15;1.17;;;1.10;;
20110;SDS011;10216;42.658;23.248;2023-05-07T08:18:41;1.27;;;1.17;;
20110;SDS011;10216;42.658;23.248;2023-05-07T08:21:06;1.00;;;1.00;;
20110;SDS011;10216;42.658;23.248;2023-05-07T08:23:31;1.40;;;1.33;;
20110;SDS011;10216;42.658;23.248;2023-05-07T08:25:57;0.90;;;0.90;;
20110;SDS011;10216;42.658;23.248;2023-05-07T08:28:22;1.37;;;1.27;;
20110;SDS011;10216;42.658;23.248;2023-05-07T08:30:49;1.07;;;1.07;;
20110;SDS011;10216;42.658;23.248;2023-05-07T08:33:14;1.70;;;1.40;;
20110;SDS011;10216;42.658;23.248;2023-05-07T08:35:40;1.13;;;1.13;;
20110;SDS011;10216;42.658;23.248;2023-05-07T08:38:05;1.40;;;1.23;;
20110;SDS011;10216;42.658;23.248;2023-05-07T08:40:31;1.70;;;1.60;;
20110;SDS011;10216;42.658;23.248;2023-05-07T08:43:00;1.10;;;1.00;;
20110;SDS011;10216;42.658;23.248;2023-05-07T08:45:25;1.53;;;1.43;;
20110;SDS011;10216;42.658;23.248;2023-05-07T08:47:59;1.00;;;0.93;;
20110;SDS011;10216;42.658;23.248;2023-05-07T08:50:26;1.03;;;0.97;;
20110;SDS011;10216;42.658;23.248;2023-05-07T08:52:51;1.03;;;1.03;;
20110;SDS011;10216;42.658;23.248;2023-05-07T08:55:17;5.80;;;1.40;;
20110;SDS011;10216;42.658;23.248;2023-05-07T08:57:42;1.30;;;1.20;;
20110;SDS011;10216;42.658;23.248;2023-05-07T09:00:08;1.17;;;1.07;;
20110;SDS011;10216;42.658;23.248;2023-05-07T09:02:35;0.90;;;0.90;;
20110;SDS011;10216;42.658;23.248;2023-05-07T09:05:00;0.82;;;0.82;;
20110;SDS011;10216;42.658;23.248;2023-05-07T09:07:25;1.67;;;1.23;;
20110;SDS011;10216;42.658;23.248;2023-05-07T09:09:51;2.42;;;1.17;;
20110;SDS011;10216;42.658;23.248;2023-05-07T09:12:17;1.15;;;1.10;;
20110;SDS011;10216;42.658;23.248;2023-05-07T09:14:42;1.00;;;1.00;;
20110;SDS011;10216;42.658;23.248;2023-05-07T09:17:08;1.40;;;1.30;;
20110;SDS011;10216;42.658;23.248;2023-05-07T09:19:33;1.35;;;1.25;;
20110;SDS011;10216;42.658;23.248;2023-05-07T09:22:01;1.13;;;1.03;;
20110;SDS011;10216;42.658;23.248;2023-05-07T09:24:27;1.58;;;1.15;;
20110;SDS011;10216;42.658;23.248;2023-05-07T09:26:57;1.08;;;0.90;;
20110;SDS011;10216;42.658;23.248;2023-05-07T09:29:22;1.27;;;1.17;;
20110;SDS011;10216;42.658;23.248;2023-05-07T09:31:48;0.80;;;0.80;;
20110;SDS011;10216;42.658;23.248;2023-05-07T09:34:13;0.93;;;0.93;;
20110;SDS011;10216;42.658;23.248;2023-05-07T09:36:38;2.08;;;1.00;;
20110;SDS011;10216;42.658;23.248;2023-05-07T09:39:03;0.80;;;0.80;;
20110;SDS011;10216;42.658;23.248;2023-05-07T09:41:29;1.20;;;1.10;;
20110;SDS011;10216;42.658;23.248;2023-05-07T09:43:55;0.80;;;0.80;;
20110;SDS011;10216;42.658;23.248;2023-05-07T09:46:22;0.80;;;0.80;;
20110;SDS011;10216;42.658;23.248;2023-05-07T09:48:50;1.05;;;1.00;;
20110;SDS011;10216;42.658;23.248;2023-05-07T09:53:45;1.00;;;1.00;;
20110;SDS011;10216;42.658;23.248;2023-05-07T09:56:11;0.90;;;0.90;;
20110;SDS011;10216;42.658;23.248;2023-05-07T09:58:37;0.98;;;0.98;;
20110;SDS011;10216;42.658;23.248;2023-05-07T10:01:04;0.82;;;0.82;;
20110;SDS011;10216;42.658;23.248;2023-05-07T10:03:30;0.77;;;0.77;;
20110;SDS011;10216;42.658;23.248;2023-05-07T10:05:57;1.05;;;1.00;;
20110;SDS011;10216;42.658;23.248;2023-05-07T10:08:23;0.95;;;0.95;;
20110;SDS011;10216;42.658;23.248;2023-05-07T10:10:48;0.73;;;0.73;;
20110;SDS011;10216;42.658;23.248;2023-05-07T10:13:14;1.10;;;1.00;;
20110;SDS011;10216;42.658;23.248;2023-05-07T10:15:39;0.90;;;0.80;;
20110;SDS011;10216;42.658;23.248;2023-05-07T10:18:05;0.77;;;0.70;;
20110;SDS011;10216;42.658;23.248;2023-05-07T10:20:31;1.00;;;0.90;;
20110;SDS011;10216;42.658;23.248;2023-05-07T10:22:58;0.65;;;0.65;;
20110;SDS011;10216;42.658;23.248;2023-05-07T10:25:28;0.82;;;0.80;;
20110;SDS011;10216;42.658;23.248;2023-05-07T10:27:53;0.60;;;0.60;;
20110;SDS011;10216;42.658;23.248;2023-05-07T10:30:29;0.70;;;0.70;;
20110;SDS011;10216;42.658;23.248;2023-05-07T10:32:59;0.95;;;0.70;;
20110;SDS011;10216;42.658;23.248;2023-05-07T10:35:30;1.05;;;0.80;;
20110;SDS011;10216;42.658;23.248;2023-05-07T10:37:57;0.50;;;0.50;;
20110;SDS011;10216;42.658;23.248;2023-05-07T10:40:23;2.30;;;0.75;;
20110;SDS011;10216;42.658;23.248;2023-05-07T10:42:55;0.70;;;0.70;;
20110;SDS011;10216;42.658;23.248;2023-05-07T10:45:21;0.55;;;0.55;;
20110;SDS011;10216;42.658;23.248;2023-05-07T10:50:30;0.60;;;0.60;;
20110;SDS011;10216;42.658;23.248;2023-05-07T10:56:23;4.20;;;1.60;;
20110;SDS011;10216;42.658;23.248;2023-05-07T10:58:41;0.68;;;0.68;;
20110;SDS011;10216;42.658;23.248;2023-05-07T11:01:06;1.00;;;1.00;;
20110;SDS011;10216;42.658;23.248;2023-05-07T11:03:32;0.80;;;0.80;;
20110;SDS011;10216;42.658;23.248;2023-05-07T11:06:13;1.30;;;1.23;;
20110;SDS011;10216;42.658;23.248;2023-05-07T11:08:57;0.73;;;0.70;;
20110;SDS011;10216;42.658;23.248;2023-05-07T11:14:07;1.17;;;1.00;;
20110;SDS011;10216;42.658;23.248;2023-05-07T11:16:32;0.65;;;0.65;;
20110;SDS011;10216;42.658;23.248;2023-05-07T11:19:00;0.80;;;0.80;;
20110;SDS011;10216;42.658;23.248;2023-05-07T11:21:38;0.65;;;0.65;;
20110;SDS011;10216;42.658;23.248;2023-05-07T11:24:04;0.57;;;0.57;;
20110;SDS011;10216;42.658;23.248;2023-05-07T11:26:31;0.85;;;0.85;;
20110;SDS011;10216;42.658;23.248;2023-05-07T11:28:56;0.70;;;0.70;;
20110;SDS011;10216;42.658;23.248;2023-05-07T11:31:23;1.15;;;1.00;;
20110;SDS011;10216;42.658;23.248;2023-05-07T11:33:48;0.57;;;0.57;;
20110;SDS011;10216;42.658;23.248;2023-05-07T11:36:14;0.80;;;0.80;;
20110;SDS011;10216;42.658;23.248;2023-05-07T11:38:39;0.85;;;0.70;;
20110;SDS011;10216;42.658;23.248;2023-05-07T11:41:05;0.70;;;0.70;;
20110;SDS011;10216;42.658;23.248;2023-05-07T11:43:30;1.10;;;1.00;;
20110;SDS011;10216;42.658;23.248;2023-05-07T11:46:04;0.70;;;0.70;;
20110;SDS011;10216;42.658;23.248;2023-05-07T11:48:29;0.68;;;0.68;;
20110;SDS011;10216;42.658;23.248;2023-05-07T11:53:26;0.68;;;0.68;;
20110;SDS011;10216;42.658;23.248;2023-05-07T11:55:55;0.65;;;0.65;;
20110;SDS011;10216;42.658;23.248;2023-05-07T11:58:21;0.82;;;0.77;;
20110;SDS011;10216;42.658;23.248;2023-05-07T12:00:52;0.80;;;0.80;;
20110;SDS011;10216;42.658;23.248;2023-05-07T12:03:18;0.70;;;0.70;;
20110;SDS011;10216;42.658;23.248;2023-05-07T12:05:47;0.70;;;0.70;;
20110;SDS011;10216;42.658;23.248;2023-05-07T12:08:16;0.70;;;0.70;;
20110;SDS011;10216;42.658;23.248;2023-05-07T12:10:42;0.90;;;0.90;;
20110;SDS011;10216;42.658;23.248;2023-05-07T12:13:15;0.73;;;0.73;;
20110;SDS011;10216;42.658;23.248;2023-05-07T12:15:40;0.80;;;0.80;;
20110;SDS011;10216;42.658;23.248;2023-05-07T12:18:06;0.80;;;0.80;;
20110;SDS011;10216;42.658;23.248;2023-05-07T12:20:31;0.80;;;0.80;;
20110;SDS011;10216;42.658;23.248;2023-05-07T12:22:56;0.80;;;0.80;;
20110;SDS011;10216;42.658;23.248;2023-05-07T12:25:21;0.60;;;0.60;;
20110;SDS011;10216;42.658;23.248;2023-05-07T12:27:51;0.82;;;0.82;;
20110;SDS011;10216;42.658;23.248;2023-05-07T12:30:16;0.70;;;0.70;;
20110;SDS011;10216;42.658;23.248;2023-05-07T12:32:42;0.90;;;0.90;;
20110;SDS011;10216;42.658;23.248;2023-05-07T12:35:10;0.50;;;0.50;;
20110;SDS011;10216;42.658;23.248;2023-05-07T12:37:35;0.88;;;0.88;;
20110;SDS011;10216;42.658;23.248;2023-05-07T12:40:07;0.80;;;0.80;;
20110;SDS011;10216;42.658;23.248;2023-05-07T12:42:33;0.90;;;0.70;;
20110;SDS011;10216;42.658;23.248;2023-05-07T12:45:00;0.70;;;0.68;;
20110;SDS011;10216;42.658;23.248;2023-05-07T12:47:27;0.70;;;0.70;;
20110;SDS011;10216;42.658;23.248;2023-05-07T12:49:52;0.75;;;0.75;;
20110;SDS011;10216;42.658;23.248;2023-05-07T12:52:19;1.02;;;0.65;;
20110;SDS011;10216;42.658;23.248;2023-05-07T12:54:45;0.70;;;0.70;;
20110;SDS011;10216;42.658;23.248;2023-05-07T12:57:10;1.30;;;0.70;;
20110;SDS011;10216;42.658;23.248;2023-05-07T12:59:36;0.82;;;0.82;;
20110;SDS011;10216;42.658;23.248;2023-05-07T13:02:01;0.70;;;0.70;;
20110;SDS011;10216;42.658;23.248;2023-05-07T13:04:27;0.90;;;0.77;;
20110;SDS011;10216;42.658;23.248;2023-05-07T13:06:52;0.77;;;0.77;;
20110;SDS011;10216;42.658;23.248;2023-05-07T13:09:17;0.60;;;0.60;;
20110;SDS011;10216;42.658;23.248;2023-05-07T13:11:42;0.60;;;0.60;;
20110;SDS011;10216;42.658;23.248;2023-05-07T13:14:08;0.70;;;0.70;;
20110;SDS011;10216;42.658;23.248;2023-05-07T13:16:33;0.70;;;0.55;;
20110;SDS011;10216;42.658;23.248;2023-05-07T13:18:58;0.65;;;0.65;;
20110;SDS011;10216;42.658;23.248;2023-05-07T13:21:23;0.80;;;0.80;;
20110;SDS011;10216;42.658;23.248;2023-05-07T13:23:49;0.50;;;0.50;;
20110;SDS011;10216;42.658;23.248;2023-05-07T13:26:14;1.17;;;1.08;;
20110;SDS011;10216;42.658;23.248;2023-05-07T13:28:39;0.85;;;0.85;;
20110;SDS011;10216;42.658;23.248;2023-05-07T13:31:05;0.70;;;0.70;;
20110;SDS011;10216;42.658;23.248;2023-05-07T13:33:30;0.80;;;0.80;;
20110;SDS011;10216;42.658;23.248;2023-05-07T13:35:55;0.77;;;0.77;;
20110;SDS011;10216;42.658;23.248;2023-05-07T13:38:22;0.60;;;0.60;;
20110;SDS011;10216;42.658;23.248;2023-05-07T13:40:47;1.00;;;0.68;;
20110;SDS011;10216;42.658;23.248;2023-05-07T13:43:12;0.55;;;0.55;;
20110;SDS011;10216;42.658;23.248;2023-05-07T13:45:37;0.50;;;0.50;;
20110;SDS011;10216;42.658;23.248;2023-05-07T13:48:03;0.70;;;0.70;;
20110;SDS011;10216;42.658;23.248;2023-05-07T13:50:28;0.63;;;0.63;;
20110;SDS011;10216;42.658;23.248;2023-05-07T13:52:54;0.63;;;0.63;;
20110;SDS011;10216;42.658;23.248;2023-05-07T13:55:20;0.50;;;0.50;;
20110;SDS011;10216;42.658;23.248;2023-05-07T13:57:46;0.80;;;0.80;;
20110;SDS011;10216;42.658;23.248;2023-05-07T14:00:12;0.60;;;0.60;;
20110;SDS011;10216;42.658;23.248;2023-05-07T14:02:37;0.55;;;0.55;;
20110;SDS011;10216;42.658;23.248;2023-05-07T14:05:02;0.85;;;0.60;;
20110;SDS011;10216;42.658;23.248;2023-05-07T14:07:28;0.60;;;0.60;;
20110;SDS011;10216;42.658;23.248;2023-05-07T14:09:53;1.00;;;1.00;;
20110;SDS011;10216;42.658;23.248;2023-05-07T14:12:19;0.70;;;0.70;;
20110;SDS011;10216;42.658;23.248;2023-05-07T14:14:44;0.70;;;0.70;;
20110;SDS011;10216;42.658;23.248;2023-05-07T14:17:10;0.60;;;0.60;;
20110;SDS011;10216;42.658;23.248;2023-05-07T14:19:35;0.77;;;0.77;;
20110;SDS011;10216;42.658;23.248;2023-05-07T14:22:01;0.70;;;0.70;;
20110;SDS011;10216;42.658;23.248;2023-05-07T14:24:26;0.60;;;0.60;;
20110;SDS011;10216;42.658;23.248;2023-05-07T14:26:51;0.70;;;0.70;;
20110;SDS011;10216;42.658;23.248;2023-05-07T14:29:16;0.60;;;0.60;;
20110;SDS011;10216;42.658;23.248;2023-05-07T14:31:44;0.70;;;0.70;;
20110;SDS011;10216;42.658;23.248;2023-05-07T14:34:09;0.60;;;0.60;;
20110;SDS011;10216;42.658;23.248;2023-05-07T14:36:34;0.60;;;0.60;;
20110;SDS011;10216;42.658;23.248;2023-05-07T14:39:00;0.70;;;0.70;;